sensor_id;sensor_type;location;lat;lon;timestamp;pressure;altitude;pressure_sealevel;temperature;humidity
57594;BME280;43423;46.510;6.686;2023-02-11T00:01:37;98345.72;;;1.49;62.53
57594;BME280;43423;46.510;6.686;2023-02-11T00:04:04;98348.81;;;1.48;61.94
57594;BME280;43423;46.510;6.686;2023-02-11T00:06:31;98342.72;;;1.58;62.32
57594;BME280;43423;46.510;6.686;2023-02-11T00:08:57;98341.91;;;1.54;62.49
57594;BME280;43423;46.510;6.686;2023-02-11T00:11:24;98327.97;;;1.52;62.45
57594;BME280;43423;46.510;6.686;2023-02-11T00:13:51;98326.81;;;1.53;62.66
57594;BME280;43423;46.510;6.686;2023-02-11T00:16:19;98333.09;;;1.60;62.36
57594;BME280;43423;46.510;6.686;2023-02-11T00:18:45;98333.53;;;1.66;61.64
57594;BME280;43423;46.510;6.686;2023-02-11T00:21:14;98345.16;;;1.66;61.85
57594;BME280;43423;46.510;6.686;2023-02-11T00:23:40;98338.22;;;1.73;61.15
57594;BME280;43423;46.510;6.686;2023-02-11T00:26:23;98338.66;;;1.78;61.54
57594;BME280;43423;46.510;6.686;2023-02-11T00:28:50;98335.56;;;1.80;61.74
57594;BME280;43423;46.510;6.686;2023-02-11T00:31:18;98339.44;;;1.79;61.04
57594;BME280;43423;46.510;6.686;2023-02-11T00:33:44;98330.91;;;1.80;61.58
57594;BME280;43423;46.510;6.686;2023-02-11T00:36:14;98335.16;;;1.74;61.70
57594;BME280;43423;46.510;6.686;2023-02-11T00:38:42;98331.63;;;1.70;61.80
57594;BME280;43423;46.510;6.686;2023-02-11T00:41:08;98330.13;;;1.76;61.52
57594;BME280;43423;46.510;6.686;2023-02-11T00:43:34;98331.59;;;1.66;61.22
57594;BME280;43423;46.510;6.686;2023-02-11T00:46:00;98323.78;;;1.61;61.62
57594;BME280;43423;46.510;6.686;2023-02-11T00:48:26;98316.75;;;1.53;62.13
57594;BME280;43423;46.510;6.686;2023-02-11T00:50:52;98318.22;;;1.47;62.20
57594;BME280;43423;46.510;6.686;2023-02-11T00:53:17;98318.50;;;1.35;62.20
57594;BME280;43423;46.510;6.686;2023-02-11T00:55:43;98315.75;;;1.31;62.46
57594;BME280;43423;46.510;6.686;2023-02-11T00:58:08;98304.19;;;1.38;62.92
57594;BME280;43423;46.510;6.686;2023-02-11T01:00:34;98310.78;;;1.37;62.84
57594;BME280;43423;46.510;6.686;2023-02-11T01:02:59;98306.09;;;1.34;62.97
57594;BME280;43423;46.510;6.686;2023-02-11T01:05:25;98294.69;;;1.18;63.01
57594;BME280;43423;46.510;6.686;2023-02-11T01:07:50;98304.66;;;1.10;63.49
57594;BME280;43423;46.510;6.686;2023-02-11T01:10:16;98305.34;;;1.00;63.22
57594;BME280;43423;46.510;6.686;2023-02-11T01:12:41;98299.19;;;1.03;63.70
57594;BME280;43423;46.510;6.686;2023-02-11T01:15:11;98298.44;;;1.06;63.25
57594;BME280;43423;46.510;6.686;2023-02-11T01:17:37;98290.06;;;1.18;62.88
57594;BME280;43423;46.510;6.686;2023-02-11T01:20:08;98283.06;;;1.17;62.57
57594;BME280;43423;46.510;6.686;2023-02-11T01:22:37;98293.84;;;1.10;63.23
57594;BME280;43423;46.510;6.686;2023-02-11T01:25:05;98292.34;;;1.16;62.71
57594;BME280;43423;46.510;6.686;2023-02-11T01:27:31;98289.91;;;1.04;63.00
57594;BME280;43423;46.510;6.686;2023-02-11T01:29:57;98290.25;;;0.99;62.68
57594;BME280;43423;46.510;6.686;2023-02-11T01:32:22;98287.84;;;0.94;63.37
57594;BME280;43423;46.510;6.686;2023-02-11T01:34:48;98290.56;;;0.94;63.93
57594;BME280;43423;46.510;6.686;2023-02-11T01:37:13;98295.69;;;1.02;63.49
57594;BME280;43423;46.510;6.686;2023-02-11T01:39:39;98294.56;;;1.03;62.97
57594;BME280;43423;46.510;6.686;2023-02-11T01:42:04;98306.31;;;1.18;62.83
57594;BME280;43423;46.510;6.686;2023-02-11T01:44:35;98302.09;;;1.21;62.14
57594;BME280;43423;46.510;6.686;2023-02-11T01:47:01;98300.25;;;1.28;61.60
57594;BME280;43423;46.510;6.686;2023-02-11T01:49:31;98299.03;;;1.26;62.25
57594;BME280;43423;46.510;6.686;2023-02-11T01:54:35;98293.41;;;1.04;63.44
57594;BME280;43423;46.510;6.686;2023-02-11T01:57:24;98289.25;;;1.14;62.39
57594;BME280;43423;46.510;6.686;2023-02-11T02:00:13;98278.56;;;1.28;61.75
57594;BME280;43423;46.510;6.686;2023-02-11T02:02:48;98282.53;;;1.42;61.16
57594;BME280;43423;46.510;6.686;2023-02-11T02:05:46;98279.91;;;1.49;61.11
57594;BME280;43423;46.510;6.686;2023-02-11T02:08:18;98278.81;;;1.57;61.11
57594;BME280;43423;46.510;6.686;2023-02-11T02:10:49;98270.97;;;1.45;61.73
57594;BME280;43423;46.510;6.686;2023-02-11T02:13:18;98273.28;;;1.43;60.36
57594;BME280;43423;46.510;6.686;2023-02-11T02:15:49;98263.16;;;1.36;60.76
57594;BME280;43423;46.510;6.686;2023-02-11T02:18:34;98266.16;;;1.27;61.51
57594;BME280;43423;46.510;6.686;2023-02-11T02:21:19;98274.25;;;1.24;60.79
57594;BME280;43423;46.510;6.686;2023-02-11T02:24:05;98267.56;;;1.14;62.03
57594;BME280;43423;46.510;6.686;2023-02-11T02:37:46;98260.69;;;0.87;64.41
57594;BME280;43423;46.510;6.686;2023-02-11T02:40:19;98262.66;;;0.90;64.04
57594;BME280;43423;46.510;6.686;2023-02-11T02:42:46;98263.06;;;0.92;63.55
57594;BME280;43423;46.510;6.686;2023-02-11T02:45:12;98261.19;;;0.96;63.70
57594;BME280;43423;46.510;6.686;2023-02-11T02:47:38;98259.22;;;0.93;64.08
57594;BME280;43423;46.510;6.686;2023-02-11T02:50:05;98254.94;;;0.92;63.22
57594;BME280;43423;46.510;6.686;2023-02-11T02:52:45;98253.00;;;0.89;64.23
57594;BME280;43423;46.510;6.686;2023-02-11T02:55:19;98248.00;;;0.94;63.82
57594;BME280;43423;46.510;6.686;2023-02-11T02:58:04;98236.38;;;0.94;63.22
57594;BME280;43423;46.510;6.686;2023-02-11T03:01:11;98238.78;;;0.99;63.58
57594;BME280;43423;46.510;6.686;2023-02-11T03:06:30;98247.25;;;0.60;65.00
57594;BME280;43423;46.510;6.686;2023-02-11T03:09:03;98250.63;;;0.53;65.19
57594;BME280;43423;46.510;6.686;2023-02-11T03:11:30;98246.88;;;0.62;64.76
57594;BME280;43423;46.510;6.686;2023-02-11T03:13:56;98249.28;;;0.70;64.54
57594;BME280;43423;46.510;6.686;2023-02-11T03:16:26;98243.78;;;0.63;64.83
57594;BME280;43423;46.510;6.686;2023-02-11T03:18:59;98234.31;;;0.80;64.25
57594;BME280;43423;46.510;6.686;2023-02-11T03:21:28;98232.25;;;0.70;64.06
57594;BME280;43423;46.510;6.686;2023-02-11T03:23:59;98227.63;;;0.70;63.99
57594;BME280;43423;46.510;6.686;2023-02-11T03:26:29;98237.72;;;0.73;64.27
57594;BME280;43423;46.510;6.686;2023-02-11T03:31:43;98229.78;;;0.88;63.60
57594;BME280;43423;46.510;6.686;2023-02-11T03:34:17;98224.50;;;0.65;65.17
57594;BME280;43423;46.510;6.686;2023-02-11T03:36:50;98231.16;;;0.41;64.75
57594;BME280;43423;46.510;6.686;2023-02-11T03:39:24;98215.06;;;0.55;64.51
57594;BME280;43423;46.510;6.686;2023-02-11T03:41:53;98220.56;;;0.62;66.06
57594;BME280;43423;46.510;6.686;2023-02-11T03:44:21;98222.75;;;0.49;66.28
57594;BME280;43423;46.510;6.686;2023-02-11T03:46:50;98209.75;;;0.62;65.21
57594;BME280;43423;46.510;6.686;2023-02-11T03:49:18;98214.50;;;0.72;65.06
57594;BME280;43423;46.510;6.686;2023-02-11T03:51:46;98211.81;;;0.72;65.08
57594;BME280;43423;46.510;6.686;2023-02-11T03:54:17;98213.75;;;0.75;64.17
57594;BME280;43423;46.510;6.686;2023-02-11T03:56:53;98209.09;;;0.72;64.96
57594;BME280;43423;46.510;6.686;2023-02-11T03:59:19;98215.25;;;0.69;65.04
57594;BME280;43423;46.510;6.686;2023-02-11T04:01:45;98213.31;;;0.70;64.95
57594;BME280;43423;46.510;6.686;2023-02-11T04:04:10;98212.88;;;0.64;65.76
57594;BME280;43423;46.510;6.686;2023-02-11T04:06:36;98205.06;;;0.59;65.48
57594;BME280;43423;46.510;6.686;2023-02-11T04:09:02;98219.00;;;0.61;65.77
57594;BME280;43423;46.510;6.686;2023-02-11T04:11:28;98216.31;;;0.61;65.76
57594;BME280;43423;46.510;6.686;2023-02-11T04:13:54;98219.00;;;0.61;67.55
57594;BME280;43423;46.510;6.686;2023-02-11T04:16:19;98213.19;;;0.59;67.63
57594;BME280;43423;46.510;6.686;2023-02-11T04:18:45;98208.66;;;0.70;66.48
57594;BME280;43423;46.510;6.686;2023-02-11T04:21:10;98212.22;;;0.78;67.15
57594;BME280;43423;46.510;6.686;2023-02-11T04:23:36;98208.75;;;0.77;66.50
57594;BME280;43423;46.510;6.686;2023-02-11T04:26:01;98195.66;;;0.79;67.05
57594;BME280;43423;46.510;6.686;2023-02-11T04:28:27;98202.69;;;0.88;66.74
57594;BME280;43423;46.510;6.686;2023-02-11T04:30:54;98201.16;;;0.90;66.48
57594;BME280;43423;46.510;6.686;2023-02-11T04:33:21;98203.41;;;0.84;66.41
57594;BME280;43423;46.510;6.686;2023-02-11T04:35:46;98205.03;;;0.89;67.08
57594;BME280;43423;46.510;6.686;2023-02-11T04:38:13;98215.47;;;0.91;67.16
57594;BME280;43423;46.510;6.686;2023-02-11T04:40:38;98215.03;;;0.85;65.40
57594;BME280;43423;46.510;6.686;2023-02-11T04:43:05;98208.28;;;0.68;65.98
57594;BME280;43423;46.510;6.686;2023-02-11T04:45:30;98209.81;;;0.69;66.17
57594;BME280;43423;46.510;6.686;2023-02-11T04:47:56;98209.34;;;0.60;66.86
57594;BME280;43423;46.510;6.686;2023-02-11T04:50:21;98212.03;;;0.60;67.56
57594;BME280;43423;46.510;6.686;2023-02-11T04:52:47;98213.56;;;0.58;67.01
57594;BME280;43423;46.510;6.686;2023-02-11T04:55:13;98205.81;;;0.56;65.85
57594;BME280;43423;46.510;6.686;2023-02-11T04:57:38;98210.50;;;0.59;66.91
57594;BME280;43423;46.510;6.686;2023-02-11T05:00:04;98209.75;;;0.62;66.05
57594;BME280;43423;46.510;6.686;2023-02-11T05:02:31;98205.81;;;0.56;66.45
57594;BME280;43423;46.510;6.686;2023-02-11T05:04:56;98198.09;;;0.24;67.08
57594;BME280;43423;46.510;6.686;2023-02-11T05:07:22;98187.59;;;0.19;67.22
57594;BME280;43423;46.510;6.686;2023-02-11T05:09:47;98190.25;;;0.16;66.40
57594;BME280;43423;46.510;6.686;2023-02-11T05:12:14;98190.59;;;0.14;65.81
57594;BME280;43423;46.510;6.686;2023-02-11T05:14:39;98190.69;;;0.18;65.92
57594;BME280;43423;46.510;6.686;2023-02-11T05:17:05;98189.25;;;0.27;65.79
57594;BME280;43423;46.510;6.686;2023-02-11T05:19:31;98188.00;;;0.21;66.38
57594;BME280;43423;46.510;6.686;2023-02-11T05:21:56;98190.91;;;0.39;66.21
57594;BME280;43423;46.510;6.686;2023-02-11T05:24:22;98191.38;;;0.45;66.91
57594;BME280;43423;46.510;6.686;2023-02-11T05:26:47;98194.91;;;0.49;65.95
57594;BME280;43423;46.510;6.686;2023-02-11T05:29:13;98184.59;;;0.28;66.14
57594;BME280;43423;46.510;6.686;2023-02-11T05:31:38;98183.34;;;0.18;66.47
57594;BME280;43423;46.510;6.686;2023-02-11T05:34:04;98178.97;;;0.10;66.40
57594;BME280;43423;46.510;6.686;2023-02-11T05:36:30;98178.78;;;-0.04;65.76
57594;BME280;43423;46.510;6.686;2023-02-11T05:38:56;98173.19;;;0.12;65.95
57594;BME280;43423;46.510;6.686;2023-02-11T05:41:21;98184.69;;;0.05;65.66
57594;BME280;43423;46.510;6.686;2023-02-11T05:43:48;98180.06;;;0.06;65.04
57594;BME280;43423;46.510;6.686;2023-02-11T05:46:16;98182.78;;;0.06;64.58
57594;BME280;43423;46.510;6.686;2023-02-11T05:48:42;98175.41;;;0.03;64.37
57594;BME280;43423;46.510;6.686;2023-02-11T05:51:08;98172.38;;;0.08;64.35
57594;BME280;43423;46.510;6.686;2023-02-11T05:53:33;98168.25;;;0.17;64.54
57594;BME280;43423;46.510;6.686;2023-02-11T05:55:59;98178.00;;;0.25;64.37
57594;BME280;43423;46.510;6.686;2023-02-11T05:58:25;98185.38;;;0.28;64.35
57594;BME280;43423;46.510;6.686;2023-02-11T06:00:50;98184.22;;;0.30;64.85
57594;BME280;43423;46.510;6.686;2023-02-11T06:03:16;98175.69;;;0.24;63.91
57594;BME280;43423;46.510;6.686;2023-02-11T06:05:43;98178.31;;;0.20;64.18
57594;BME280;43423;46.510;6.686;2023-02-11T06:08:08;98177.53;;;0.16;63.84
57594;BME280;43423;46.510;6.686;2023-02-11T06:10:34;98176.88;;;0.26;64.23
57594;BME280;43423;46.510;6.686;2023-02-11T06:13:00;98175.31;;;0.25;64.32
57594;BME280;43423;46.510;6.686;2023-02-11T06:15:26;98182.28;;;0.26;64.51
57594;BME280;43423;46.510;6.686;2023-02-11T06:17:51;98185.47;;;0.36;64.22
57594;BME280;43423;46.510;6.686;2023-02-11T06:20:17;98185.47;;;0.36;63.72
57594;BME280;43423;46.510;6.686;2023-02-11T06:22:42;98190.47;;;0.34;63.78
57594;BME280;43423;46.510;6.686;2023-02-11T06:25:08;98190.03;;;0.28;63.71
57594;BME280;43423;46.510;6.686;2023-02-11T06:27:35;98178.41;;;0.27;63.98
57594;BME280;43423;46.510;6.686;2023-02-11T06:30:02;98171.47;;;0.26;63.85
57594;BME280;43423;46.510;6.686;2023-02-11T06:32:28;98175.94;;;0.15;64.15
57594;BME280;43423;46.510;6.686;2023-02-11T06:34:54;98178.63;;;0.15;63.96
57594;BME280;43423;46.510;6.686;2023-02-11T06:37:19;98185.47;;;0.06;64.32
57594;BME280;43423;46.510;6.686;2023-02-11T06:39:45;98196.34;;;0.09;65.19
57594;BME280;43423;46.510;6.686;2023-02-11T06:42:11;98183.72;;;0.17;64.98
57594;BME280;43423;46.510;6.686;2023-02-11T06:44:36;98187.28;;;0.24;64.52
57594;BME280;43423;46.510;6.686;2023-02-11T06:47:02;98194.28;;;0.29;65.29
57594;BME280;43423;46.510;6.686;2023-02-11T06:49:27;98192.41;;;0.33;65.33
57594;BME280;43423;46.510;6.686;2023-02-11T06:51:53;98199.38;;;0.34;65.03
57594;BME280;43423;46.510;6.686;2023-02-11T06:54:18;98200.56;;;0.37;64.95
57594;BME280;43423;46.510;6.686;2023-02-11T06:56:44;98200.56;;;0.37;64.92
57594;BME280;43423;46.510;6.686;2023-02-11T06:59:15;98207.50;;;0.34;64.42
57594;BME280;43423;46.510;6.686;2023-02-11T07:01:41;98214.00;;;0.30;64.48
57594;BME280;43423;46.510;6.686;2023-02-11T07:04:06;98206.28;;;0.32;63.44
57594;BME280;43423;46.510;6.686;2023-02-11T07:06:32;98198.53;;;0.30;62.91
57594;BME280;43423;46.510;6.686;2023-02-11T07:08:58;98209.50;;;0.41;62.91
57594;BME280;43423;46.510;6.686;2023-02-11T07:11:26;98201.06;;;0.46;62.60
57594;BME280;43423;46.510;6.686;2023-02-11T07:13:58;98203.66;;;0.39;63.01
57594;BME280;43423;46.510;6.686;2023-02-11T07:16:24;98223.44;;;0.43;61.83
57594;BME280;43423;46.510;6.686;2023-02-11T07:18:49;98234.59;;;0.38;62.27
57594;BME280;43423;46.510;6.686;2023-02-11T07:21:18;98238.44;;;0.37;62.43
57594;BME280;43423;46.510;6.686;2023-02-11T07:23:45;98233.59;;;0.49;62.83
57594;BME280;43423;46.510;6.686;2023-02-11T07:26:13;98244.34;;;0.46;62.71
57594;BME280;43423;46.510;6.686;2023-02-11T07:28:39;98249.75;;;0.46;63.62
57594;BME280;43423;46.510;6.686;2023-02-11T07:31:09;98249.75;;;0.46;61.76
57594;BME280;43423;46.510;6.686;2023-02-11T07:33:36;98249.03;;;0.49;61.61
57594;BME280;43423;46.510;6.686;2023-02-11T07:36:04;98254.19;;;0.58;60.72
57594;BME280;43423;46.510;6.686;2023-02-11T07:38:32;98256.19;;;0.64;60.93
57594;BME280;43423;46.510;6.686;2023-02-11T07:40:59;98250.81;;;0.68;60.54
57594;BME280;43423;46.510;6.686;2023-02-11T07:43:26;98251.09;;;0.59;59.57
57594;BME280;43423;46.510;6.686;2023-02-11T07:45:51;98249.16;;;0.60;59.98
57594;BME280;43423;46.510;6.686;2023-02-11T07:48:17;98249.13;;;0.56;59.09
57594;BME280;43423;46.510;6.686;2023-02-11T07:50:42;98252.25;;;0.58;58.72
57594;BME280;43423;46.510;6.686;2023-02-11T07:53:08;98252.34;;;0.65;58.54
57594;BME280;43423;46.510;6.686;2023-02-11T07:55:33;98256.59;;;0.66;59.14
57594;BME280;43423;46.510;6.686;2023-02-11T07:57:59;98257.50;;;0.77;59.16
57594;BME280;43423;46.510;6.686;2023-02-11T08:00:24;98260.81;;;0.97;59.49
57594;BME280;43423;46.510;6.686;2023-02-11T08:02:50;98259.03;;;1.12;59.93
57594;BME280;43423;46.510;6.686;2023-02-11T08:05:15;98265.47;;;1.37;60.36
57594;BME280;43423;46.510;6.686;2023-02-11T08:07:41;98263.34;;;1.61;60.84
57594;BME280;43423;46.510;6.686;2023-02-11T08:10:07;98268.97;;;1.82;61.58
57594;BME280;43423;46.510;6.686;2023-02-11T08:12:33;98261.00;;;2.07;60.99
57594;BME280;43423;46.510;6.686;2023-02-11T08:14:58;98266.22;;;2.37;59.30
57594;BME280;43423;46.510;6.686;2023-02-11T08:17:24;98266.34;;;2.62;60.17
57594;BME280;43423;46.510;6.686;2023-02-11T08:19:49;98264.13;;;2.96;59.91
57594;BME280;43423;46.510;6.686;2023-02-11T08:22:15;98264.53;;;3.05;59.76
57594;BME280;43423;46.510;6.686;2023-02-11T08:24:40;98269.22;;;3.23;60.07
57594;BME280;43423;46.510;6.686;2023-02-11T08:27:06;98274.69;;;3.37;60.31
57594;BME280;43423;46.510;6.686;2023-02-11T08:29:31;98272.00;;;3.55;60.57
57594;BME280;43423;46.510;6.686;2023-02-11T08:31:57;98287.56;;;3.72;62.00
57594;BME280;43423;46.510;6.686;2023-02-11T08:34:22;98286.00;;;3.78;62.58
57594;BME280;43423;46.510;6.686;2023-02-11T08:36:48;98292.22;;;3.86;62.31
57594;BME280;43423;46.510;6.686;2023-02-11T08:39:17;98295.75;;;3.90;61.61
57594;BME280;43423;46.510;6.686;2023-02-11T08:41:43;98300.78;;;3.74;62.13
57594;BME280;43423;46.510;6.686;2023-02-11T08:44:09;98285.22;;;3.53;62.79
57594;BME280;43423;46.510;6.686;2023-02-11T08:46:35;98288.28;;;3.30;64.48
57594;BME280;43423;46.510;6.686;2023-02-11T08:49:00;98297.59;;;3.29;64.20
57594;BME280;43423;46.510;6.686;2023-02-11T08:51:27;98296.84;;;3.32;64.55
57594;BME280;43423;46.510;6.686;2023-02-11T08:53:54;98296.03;;;3.31;64.75
57594;BME280;43423;46.510;6.686;2023-02-11T08:56:21;98301.13;;;3.47;64.62
57594;BME280;43423;46.510;6.686;2023-02-11T08:58:50;98295.69;;;3.36;63.43
57594;BME280;43423;46.510;6.686;2023-02-11T09:01:28;98307.00;;;3.67;62.74
57594;BME280;43423;46.510;6.686;2023-02-11T09:03:54;98302.69;;;3.62;62.48
57594;BME280;43423;46.510;6.686;2023-02-11T09:06:21;98306.97;;;3.60;65.58
57594;BME280;43423;46.510;6.686;2023-02-11T09:08:49;98307.75;;;3.71;66.45
57594;BME280;43423;46.510;6.686;2023-02-11T09:11:16;98306.63;;;3.72;66.34
57594;BME280;43423;46.510;6.686;2023-02-11T09:13:43;98311.69;;;3.95;65.14
57594;BME280;43423;46.510;6.686;2023-02-11T09:16:17;98312.84;;;4.01;65.36
57594;BME280;43423;46.510;6.686;2023-02-11T09:18:42;98317.13;;;4.20;65.66
57594;BME280;43423;46.510;6.686;2023-02-11T09:21:10;98324.06;;;4.46;64.73
57594;BME280;43423;46.510;6.686;2023-02-11T09:23:36;98333.41;;;4.48;64.06
57594;BME280;43423;46.510;6.686;2023-02-11T09:26:11;98336.47;;;4.68;63.71
57594;BME280;43423;46.510;6.686;2023-02-11T09:28:36;98333.31;;;4.81;62.32
57594;BME280;43423;46.510;6.686;2023-02-11T09:31:10;98327.81;;;4.95;62.18
57594;BME280;43423;46.510;6.686;2023-02-11T09:33:37;98327.94;;;4.66;63.06
57594;BME280;43423;46.510;6.686;2023-02-11T09:36:05;98319.34;;;4.71;63.48
57594;BME280;43423;46.510;6.686;2023-02-11T09:38:30;98324.72;;;4.93;63.19
57594;BME280;43423;46.510;6.686;2023-02-11T09:40:56;98327.13;;;4.73;63.31
57594;BME280;43423;46.510;6.686;2023-02-11T09:43:43;98321.19;;;4.99;62.33
57594;BME280;43423;46.510;6.686;2023-02-11T09:46:14;98331.38;;;4.81;61.68
57594;BME280;43423;46.510;6.686;2023-02-11T09:48:42;98336.44;;;4.86;62.64
57594;BME280;43423;46.510;6.686;2023-02-11T09:51:35;98336.44;;;4.90;62.42
57594;BME280;43423;46.510;6.686;2023-02-11T09:54:09;98334.38;;;5.15;62.50
57594;BME280;43423;46.510;6.686;2023-02-11T09:56:37;98344.00;;;5.38;61.64
57594;BME280;43423;46.510;6.686;2023-02-11T09:59:03;98357.34;;;5.21;62.21
57594;BME280;43423;46.510;6.686;2023-02-11T10:01:47;98351.22;;;4.92;62.47
57594;BME280;43423;46.510;6.686;2023-02-11T10:10:06;98354.19;;;5.26;61.68
57594;BME280;43423;46.510;6.686;2023-02-11T10:23:17;98358.66;;;5.65;61.11
57594;BME280;43423;46.510;6.686;2023-02-11T10:25:50;98355.59;;;5.56;60.67
57594;BME280;43423;46.510;6.686;2023-02-11T10:28:21;98355.47;;;5.74;61.12
57594;BME280;43423;46.510;6.686;2023-02-11T10:30:57;98351.00;;;5.42;60.88
57594;BME280;43423;46.510;6.686;2023-02-11T10:33:35;98344.81;;;5.27;61.49
57594;BME280;43423;46.510;6.686;2023-02-11T10:36:06;98341.72;;;5.25;62.67
57594;BME280;43423;46.510;6.686;2023-02-11T10:38:31;98343.94;;;5.48;62.08
57594;BME280;43423;46.510;6.686;2023-02-11T10:40:58;98342.09;;;5.27;62.21
57594;BME280;43423;46.510;6.686;2023-02-11T10:43:27;98344.19;;;4.88;63.68
57594;BME280;43423;46.510;6.686;2023-02-11T10:45:54;98334.72;;;5.24;63.65
57594;BME280;43423;46.510;6.686;2023-02-11T10:48:40;98338.25;;;5.21;63.19
57594;BME280;43423;46.510;6.686;2023-02-11T10:51:18;98330.75;;;5.36;63.05
57594;BME280;43423;46.510;6.686;2023-02-11T10:53:45;98324.06;;;5.48;62.02
57594;BME280;43423;46.510;6.686;2023-02-11T10:56:57;98318.88;;;5.71;61.34
57594;BME280;43423;46.510;6.686;2023-02-11T10:59:33;98315.06;;;5.54;61.98
57594;BME280;43423;46.510;6.686;2023-02-11T11:04:46;98315.75;;;5.69;61.88
57594;BME280;43423;46.510;6.686;2023-02-11T11:07:19;98308.03;;;5.57;62.03
57594;BME280;43423;46.510;6.686;2023-02-11T11:09:54;98301.16;;;5.90;61.27
57594;BME280;43423;46.510;6.686;2023-02-11T11:12:32;98297.28;;;5.91;60.04
57594;BME280;43423;46.510;6.686;2023-02-11T11:15:18;98304.78;;;5.76;61.44
57594;BME280;43423;46.510;6.686;2023-02-11T11:17:49;98296.09;;;5.96;61.10
57594;BME280;43423;46.510;6.686;2023-02-11T11:20:27;98293.84;;;5.76;61.11
57594;BME280;43423;46.510;6.686;2023-02-11T11:23:09;98296.69;;;6.18;61.25
57594;BME280;43423;46.510;6.686;2023-02-11T11:25:41;98298.63;;;6.17;60.78
57594;BME280;43423;46.510;6.686;2023-02-11T11:28:19;98293.09;;;6.62;59.78
57594;BME280;43423;46.510;6.686;2023-02-11T11:30:46;98302.78;;;6.32;60.04
57594;BME280;43423;46.510;6.686;2023-02-11T11:33:25;98300.88;;;6.63;59.47
57594;BME280;43423;46.510;6.686;2023-02-11T11:35:58;98278.22;;;6.66;59.38
57594;BME280;43423;46.510;6.686;2023-02-11T11:38:26;98273.69;;;6.53;58.36
57594;BME280;43423;46.510;6.686;2023-02-11T11:41:12;98286.22;;;6.47;59.14
57594;BME280;43423;46.510;6.686;2023-02-11T11:43:37;98278.28;;;6.25;58.80
57594;BME280;43423;46.510;6.686;2023-02-11T11:46:04;98275.09;;;6.30;59.25
57594;BME280;43423;46.510;6.686;2023-02-11T11:48:39;98268.78;;;6.71;58.45
57594;BME280;43423;46.510;6.686;2023-02-11T11:51:11;98265.03;;;6.92;57.78
57594;BME280;43423;46.510;6.686;2023-02-11T11:53:42;98265.53;;;6.83;57.46
57594;BME280;43423;46.510;6.686;2023-02-11T11:56:15;98264.69;;;6.86;57.70
57594;BME280;43423;46.510;6.686;2023-02-11T11:58:42;98258.38;;;6.93;57.79
57594;BME280;43423;46.510;6.686;2023-02-11T12:09:49;98244.81;;;7.43;57.15
57594;BME280;43423;46.510;6.686;2023-02-11T12:12:29;98240.56;;;7.39;56.65
57594;BME280;43423;46.510;6.686;2023-02-11T12:26:12;98228.41;;;7.67;55.70
57594;BME280;43423;46.510;6.686;2023-02-11T12:32:02;98232.75;;;7.88;53.50
57594;BME280;43423;46.510;6.686;2023-02-11T12:34:44;98231.84;;;7.94;54.28
57594;BME280;43423;46.510;6.686;2023-02-11T12:39:50;98213.56;;;7.88;53.56
57594;BME280;43423;46.510;6.686;2023-02-11T12:42:37;98215.75;;;7.96;52.50
57594;BME280;43423;46.510;6.686;2023-02-11T12:45:43;98203.22;;;7.75;52.59
57594;BME280;43423;46.510;6.686;2023-02-11T12:51:10;98212.84;;;8.07;52.92
57594;BME280;43423;46.510;6.686;2023-02-11T12:56:27;98203.66;;;8.17;52.29
57594;BME280;43423;46.510;6.686;2023-02-11T12:58:58;98202.69;;;8.27;52.66
57594;BME280;43423;46.510;6.686;2023-02-11T13:01:28;98195.31;;;8.24;52.24
57594;BME280;43423;46.510;6.686;2023-02-11T13:06:41;98179.84;;;8.14;52.79
57594;BME280;43423;46.510;6.686;2023-02-11T13:09:13;98177.19;;;8.50;53.03
57594;BME280;43423;46.510;6.686;2023-02-11T13:11:46;98175.38;;;8.44;52.32
57594;BME280;43423;46.510;6.686;2023-02-11T13:14:37;98171.63;;;8.14;52.42
57594;BME280;43423;46.510;6.686;2023-02-11T13:17:21;98164.28;;;7.88;53.52
57594;BME280;43423;46.510;6.686;2023-02-11T13:19:55;98163.13;;;8.08;52.67
57594;BME280;43423;46.510;6.686;2023-02-11T13:22:27;98158.78;;;7.68;53.50
57594;BME280;43423;46.510;6.686;2023-02-11T13:27:55;98156.94;;;8.24;53.04
57594;BME280;43423;46.510;6.686;2023-02-11T13:30:27;98155.56;;;8.36;52.12
57594;BME280;43423;46.510;6.686;2023-02-11T13:35:32;98152.97;;;8.49;52.52
57594;BME280;43423;46.510;6.686;2023-02-11T13:38:00;98142.91;;;8.62;52.07
57594;BME280;43423;46.510;6.686;2023-02-11T13:40:33;98152.19;;;8.48;51.37
57594;BME280;43423;46.510;6.686;2023-02-11T13:43:01;98144.53;;;8.39;51.65
57594;BME280;43423;46.510;6.686;2023-02-11T13:47:57;98152.00;;;8.39;52.34
57594;BME280;43423;46.510;6.686;2023-02-11T13:50:24;98144.66;;;8.32;51.64
57594;BME280;43423;46.510;6.686;2023-02-11T13:53:01;98141.22;;;8.48;51.85
57594;BME280;43423;46.510;6.686;2023-02-11T13:55:28;98130.25;;;8.08;51.20
57594;BME280;43423;46.510;6.686;2023-02-11T14:00:44;98135.94;;;8.57;51.20
57594;BME280;43423;46.510;6.686;2023-02-11T14:06:20;98139.31;;;8.45;51.11
57594;BME280;43423;46.510;6.686;2023-02-11T14:14:19;98131.47;;;8.47;49.41
57594;BME280;43423;46.510;6.686;2023-02-11T14:22:38;98130.69;;;8.99;48.30
57594;BME280;43423;46.510;6.686;2023-02-11T14:25:01;98130.81;;;9.12;48.05
57594;BME280;43423;46.510;6.686;2023-02-11T14:27:30;98128.72;;;9.00;47.53
57594;BME280;43423;46.510;6.686;2023-02-11T14:33:18;98125.44;;;9.25;47.13
57594;BME280;43423;46.510;6.686;2023-02-11T14:41:39;98124.72;;;9.04;47.86
57594;BME280;43423;46.510;6.686;2023-02-11T14:44:21;98127.28;;;8.95;46.64
57594;BME280;43423;46.510;6.686;2023-02-11T14:46:50;98127.44;;;8.88;47.59
57594;BME280;43423;46.510;6.686;2023-02-11T14:49:27;98130.25;;;8.48;48.65
57594;BME280;43423;46.510;6.686;2023-02-11T14:51:58;98125.16;;;8.66;48.03
57594;BME280;43423;46.510;6.686;2023-02-11T14:54:26;98121.84;;;8.39;48.10
57594;BME280;43423;46.510;6.686;2023-02-11T14:57:13;98117.19;;;8.36;48.77
57594;BME280;43423;46.510;6.686;2023-02-11T14:59:39;98114.16;;;8.10;48.54
57594;BME280;43423;46.510;6.686;2023-02-11T15:02:22;98105.69;;;7.81;49.97
57594;BME280;43423;46.510;6.686;2023-02-11T15:04:48;98118.47;;;7.45;50.58
57594;BME280;43423;46.510;6.686;2023-02-11T15:07:14;98099.97;;;7.52;50.63
57594;BME280;43423;46.510;6.686;2023-02-11T15:09:47;98104.94;;;7.57;51.42